Flight Track Log - Related Links

Times and Time Zones

All times are in EDT time to prevent confusion due to time zone crossing. See the AAL1459 flight status page for this flight to view local times or setup timezone preferences in your user account.

Time Position Orientation Groundspeed Altitude Reporting Facility
EDT Latitude Longitude Course Direction KTS MPH feet Rate Location/Type
Fri 07:41:14 PM 41.9630 -87.8880 222° Southwest 125 144  Level FlightAware ADS-B
Fri 07:41:49 PM 41.9430 -87.9170 227° Southwest 167 192 1,900 2,344 Climbing FlightAware ADS-B
Fri 07:42:18 PM 41.9310 -87.9440 239° Southwest 201 231 2,500 1,317 Climbing FlightAware ADS-B
Fri 07:42:30 PM 41.9250 -87.9570 238° Southwest 213 245 2,800 1,953 Climbing FlightAware ADS-B
Fri 07:43:01 PM 41.9070 -87.9990 240° Southwest 256 295 3,900 2,045 Climbing FlightAware ADS-B
Fri 07:43:14 PM 41.9050 -88.0160 261° West 264 304 4,300 1,622 Climbing FlightAware ADS-B
Fri 07:43:38 PM 41.9050 -88.0580 270° West 271 312 4,900 1,091 Climbing FlightAware ADS-B
Fri 07:43:58 PM 41.9100 -88.0900 282° West 266 306 5,100 1,355 Climbing FlightAware ADS-B
Fri 07:44:09 PM 41.9180 -88.1070 302° West 269 310 5,600 3,231 Climbing FlightAware ADS-B
Fri 07:44:37 PM 41.9420 -88.1430 312° West 268 308 7,200 2,893 Climbing FlightAware ADS-B
Fri 07:45:05 PM 41.9640 -88.1800 309° West 286 329 8,300 2,353 Climbing FlightAware ADS-B
Fri 07:45:28 PM 41.9810 -88.2070 310° West 292 336 9,200 2,339 Climbing FlightAware ADS-B
Fri 07:46:04 PM 42.0140 -88.2610 309° West 312 359 10,600 2,000 Climbing FlightAware ADS-B
Fri 07:46:52 PM 42.0630 -88.3410 310° West 358 412 12,000 1,880 Climbing FlightAware ADS-B
Fri 07:47:27 PM 42.0900 -88.4110 297° West 371 427 13,200 2,571 Climbing FlightAware ADS-B
Fri 07:48:09 PM 42.1150 -88.5050 290° West 372 428 15,300 2,561 Climbing FlightAware ADS-B
Fri 07:48:49 PM 42.1380 -88.5920 290° West 385 443 16,700 2,222 Climbing FlightAware ADS-B
Fri 07:49:30 PM 42.1560 -88.6870 284° West 390 449 18,300 2,259 Climbing FlightAware ADS-B
Fri 07:50:14 PM 42.1550 -88.7920 269° West 395 455 19,900 2,114 Climbing FlightAware ADS-B
Fri 07:50:58 PM 42.1540 -88.9000 269° West 402 463 21,400 1,952 Climbing FlightAware ADS-B
Fri 07:51:37 PM 42.1530 -88.9970 269° West 409 471 22,600 1,807 Climbing FlightAware ADS-B
Fri 07:52:21 PM 42.1520 -89.1110 269° West 418 481 23,900 1,680 Climbing FlightAware ADS-B
Fri 07:52:52 PM 42.1510 -89.1920 269° West 423 487 24,700 1,558 Climbing FlightAware ADS-B
Fri 07:53:38 PM 42.1500 -89.3160 269° West 432 497 25,900 1,412 Climbing FlightAware ADS-B
Fri 07:54:17 PM 42.1480 -89.4200 269° West 440 506 26,700 1,268 Climbing FlightAware ADS-B
Fri 07:54:49 PM 42.1480 -89.5120 270° West 445 512 27,400 1,291 Climbing FlightAware ADS-B
Fri 07:55:36 PM 42.1470 -89.6380 269° West 452 520 28,400 1,121 Climbing FlightAware ADS-B
Fri 07:56:20 PM 42.1440 -89.7660 268° West 460 529 29,100 868 Climbing FlightAware ADS-B
Fri 07:56:52 PM 42.1390 -89.8630 266° West 472 543 29,500 1,135 Climbing FlightAware ADS-B
Fri 07:57:34 PM 42.1320 -89.9860 266° West 472 543 30,500 1,500 Climbing FlightAware ADS-B
Fri 07:58:16 PM 42.1250 -90.1040 265° West 466 536 31,600 1,395 Climbing FlightAware ADS-B
Fri 07:59:00 PM 42.1170 -90.2350 265° West 466 536 32,500 1,171 Climbing FlightAware ADS-B
Fri 07:59:38 PM 42.1190 -90.3400 272° West 460 529 33,200 1,271 Climbing FlightAware ADS-B
Fri 08:00:25 PM 42.1250 -90.4760 273° West 454 522 34,300 1,186 Climbing FlightAware ADS-B
Fri 08:01:04 PM 42.1290 -90.5860 273° West 454 522 34,900 880 Climbing FlightAware ADS-B
Fri 08:01:40 PM 42.1330 -90.6890 273° West 453 521 35,400 779 Climbing FlightAware ADS-B
Fri 08:02:21 PM 42.1370 -90.7990 273° West 453 521 35,900 424 Climbing FlightAware ADS-B
Fri 08:03:05 PM 42.1420 -90.9280 273° West 453 521 36,000 75 Climbing FlightAware ADS-B
Fri 08:03:41 PM 42.1450 -91.0250 272° West 451 519 36,000  Level FlightAware ADS-B
Fri 08:04:35 PM 42.1500 -91.1750 273° West 449 517 36,000  Level FlightAware ADS-B
Fri 08:05:13 PM 42.1540 -91.2820 273° West 449 517 36,000  Level FlightAware ADS-B
Fri 08:05:55 PM 42.1570 -91.3990 272° West 447 514 36,000  Level FlightAware ADS-B
Fri 08:06:40 PM 42.1610 -91.5230 273° West 447 514 36,000  Level FlightAware ADS-B
Fri 08:07:20 PM 42.1640 -91.6340 272° West 449 517 36,000  Level FlightAware ADS-B
Fri 08:08:06 PM 42.1680 -91.7600 272° West 449 517 36,000  Level FlightAware ADS-B
Fri 08:08:40 PM 42.1710 -91.8590 272° West 448 516 36,000  Level FlightAware ADS-B
Fri 08:09:20 PM 42.1730 -91.9650 271° West 448 516 36,000  Level FlightAware ADS-B
Fri 08:10:19 PM 42.1780 -92.1350 272° West 448 516 36,000  Level FlightAware ADS-B
Fri 08:11:00 PM 42.1810 -92.2470 272° West 448 516 36,000  Level FlightAware ADS-B
Fri 08:11:36 PM 42.1830 -92.3470 272° West 448 516 36,000  Level FlightAware ADS-B
Fri 08:12:23 PM 42.1850 -92.4690 271° West 447 514 36,000  Level FlightAware ADS-B
Fri 08:13:01 PM 42.1880 -92.5830 272° West 447 514 36,000  Level FlightAware ADS-B
Fri 08:13:39 PM 42.1900 -92.6940 271° West 447 514 36,000  Level FlightAware ADS-B
Fri 08:14:23 PM 42.1920 -92.8130 271° West 444 511 36,000  Level FlightAware ADS-B
Fri 08:15:03 PM 42.1940 -92.9240 271° West 443 510 36,000  Level FlightAware ADS-B
Fri 08:15:35 PM 42.1959 -93.0141 272° West 441 507 36,000  Level FlightAware ADS-B
Fri 08:16:06 PM 42.1973 -93.0973 271° West 440 506 36,000  Level FlightAware ADS-B
Fri 08:16:36 PM 42.1986 -93.1817 271° West 440 506 36,000  Level FlightAware ADS-B
Fri 08:17:07 PM 42.1998 -93.2655 271° West 441 507 36,000  Level FlightAware ADS-B
Fri 08:17:38 PM 42.2010 -93.3499 271° West 441 507 36,000  Level FlightAware ADS-B
Fri 08:18:08 PM 42.2022 -93.4320 271° West 440 506 36,000  Level FlightAware ADS-B
Fri 08:18:39 PM 42.2032 -93.5172 271° West 440 506 36,000  Level FlightAware ADS-B
Fri 08:19:11 PM 42.2042 -93.6042 271° West 441 507 36,000  Level FlightAware ADS-B
Fri 08:19:41 PM 42.2051 -93.6882 271° West 441 507 36,000  Level FlightAware ADS-B
Fri 08:20:12 PM 42.2059 -93.7713 271° West 441 507 36,000  Level FlightAware ADS-B
Fri 08:20:42 PM 42.2068 -93.8542 271° West 441 507 36,000  Level FlightAware ADS-B
Fri 08:21:13 PM 42.2077 -93.9390 271° West 442 509 36,000  Level FlightAware ADS-B
Fri 08:21:43 PM 42.2084 -94.0222 271° West 442 509 36,000  Level FlightAware ADS-B
Fri 08:22:16 PM 42.2090 -94.1120 271° West 443 510 36,000  Level FlightAware ADS-B
Fri 08:22:46 PM 42.2096 -94.1960 271° West 441 507 36,000  Level FlightAware ADS-B
Fri 08:23:17 PM 42.2102 -94.2786 271° West 439 505 36,000  Level FlightAware ADS-B
Fri 08:23:47 PM 42.2107 -94.3614 270° West 438 504 36,000  Level FlightAware ADS-B
Fri 08:24:17 PM 42.2110 -94.4444 270° West 438 504 36,000  Level FlightAware ADS-B
Fri 08:24:54 PM 42.2114 -94.5431 270° West 437 503 36,000  Level FlightAware ADS-B
Fri 08:25:24 PM 42.2116 -94.6261 270° West 436 502 36,000  Level FlightAware ADS-B
Fri 08:26:16 PM 42.2119 -94.7673 270° West 435 501 36,000  Level FlightAware ADS-B
Fri 08:26:47 PM 42.2119 -94.8495 270° West 434 499 36,000  Level FlightAware ADS-B
Fri 08:27:17 PM 42.2119 -94.9306 270° West 433 498 36,000  Level FlightAware ADS-B
Fri 08:27:48 PM 42.2120 -95.0132 270° West 433 498 36,000  Level FlightAware ADS-B
Fri 08:28:18 PM 42.2119 -95.0944 270° West 432 497 36,000  Level FlightAware ADS-B
Fri 08:28:48 PM 42.2118 -95.1756 270° West 432 497 36,000  Level FlightAware ADS-B
Fri 08:29:19 PM 42.2117 -95.2586 270° West 432 497 36,000  Level FlightAware ADS-B
Fri 08:29:49 PM 42.2113 -95.3401 270° West 432 497 36,000  Level FlightAware ADS-B
Fri 08:30:20 PM 42.2109 -95.4225 270° West 434 499 36,000  Level FlightAware ADS-B
Fri 08:30:51 PM 42.2105 -95.5054 270° West 435 501 36,000  Level FlightAware ADS-B
Fri 08:31:21 PM 42.2101 -95.5892 270° West 436 502 36,000  Level FlightAware ADS-B
Fri 08:31:52 PM 42.2095 -95.6720 269° West 437 503 36,000  Level FlightAware ADS-B
Fri 08:32:22 PM 42.2090 -95.7544 270° West 437 503 36,000  Level FlightAware ADS-B
Fri 08:32:53 PM 42.2084 -95.8365 269° West 437 503 36,000  Level FlightAware ADS-B
Fri 08:33:23 PM 42.2078 -95.9186 269° West 437 503 36,000  Level FlightAware ADS-B
Fri 08:33:53 PM 42.2072 -96.0006 269° West 436 502 36,000  Level FlightAware ADS-B
Fri 08:34:23 PM 42.2065 -96.0834 269° West 437 503 36,000  Level FlightAware ADS-B
Fri 08:34:54 PM 42.2055 -96.1655 269° West 438 504 36,000  Level FlightAware ADS-B
Fri 08:35:24 PM 42.2044 -96.2471 269° West 438 504 36,000  Level FlightAware ADS-B
Fri 08:35:54 PM 42.2036 -96.3302 269° West 438 504 36,000  Level FlightAware ADS-B
Fri 08:36:24 PM 42.2027 -96.4123 269° West 439 505 36,000  Level FlightAware ADS-B
Fri 08:36:54 PM 42.2017 -96.4946 269° West 439 505 36,000  Level FlightAware ADS-B
Fri 08:37:25 PM 42.2004 -96.5781 269° West 438 504 36,000  Level FlightAware ADS-B
Fri 08:37:55 PM 42.1993 -96.6598 269° West 438 504 36,000  Level FlightAware ADS-B
Fri 08:38:25 PM 42.1980 -96.7422 269° West 437 503 36,000  Level FlightAware ADS-B
Fri 08:38:56 PM 42.1967 -96.8253 269° West 434 499 36,000  Level FlightAware ADS-B
Fri 08:39:29 PM 42.1951 -96.9130 269° West 431 496 36,000  Level FlightAware ADS-B
Fri 08:39:59 PM 42.1937 -96.9949 269° West 431 496 36,000  Level FlightAware ADS-B
Fri 08:40:30 PM 42.1922 -97.0765 269° West 431 496 36,000  Level FlightAware ADS-B
Fri 08:41:00 PM 42.1906 -97.1578 269° West 430 495 36,000  Level FlightAware ADS-B
Fri 08:41:38 PM 42.1886 -97.2582 268° West 428 493 36,000  Level FlightAware ADS-B
Fri 08:42:08 PM 42.1871 -97.3379 269° West 425 489 36,000  Level FlightAware ADS-B
Fri 08:42:38 PM 42.1855 -97.4168 268° West 422 486 36,000  Level FlightAware ADS-B
Fri 08:43:55 PM 42.1809 -97.6184 268° West 420 483 36,000  Level FlightAware ADS-B
Fri 08:44:26 PM 42.1790 -97.6980 268° West 419 482 36,000  Level FlightAware ADS-B
Fri 08:45:36 PM 42.1745 -97.8799 268° West 419 482 36,000  Level FlightAware ADS-B
Fri 08:46:06 PM 42.1725 -97.9580 268° West 419 482 36,000  Level FlightAware ADS-B
Fri 08:46:37 PM 42.1703 -98.0410 268° West 419 482 36,000  Level FlightAware ADS-B
Fri 08:47:09 PM 42.1680 -98.1225 268° West 419 482 36,000  Level FlightAware ADS-B
Fri 08:48:06 PM 42.1638 -98.2710 268° West 422 486 36,000  Level FlightAware ADS-B
Fri 08:49:16 PM 42.1583 -98.4551 268° West 425 489 36,000  Level FlightAware ADS-B
Fri 08:49:46 PM 42.1559 -98.5346 268° West 426 490 36,000  Level FlightAware ADS-B
Fri 08:50:16 PM 42.1533 -98.6164 268° West 427 491 36,000  Level FlightAware ADS-B
Fri 08:51:07 PM 42.1490 -98.7508 268° West 424 488 36,000  Level FlightAware ADS-B
Fri 08:51:37 PM 42.1463 -98.8297 267° West 423 487 36,000  Level FlightAware ADS-B
Fri 08:52:08 PM 42.1436 -98.9097 267° West 423 487 36,000  Level FlightAware ADS-B
Fri 08:52:38 PM 42.1408 -98.9885 267° West 423 487 36,000  Level FlightAware ADS-B
Fri 08:53:08 PM 42.1379 -99.0686 267° West 423 487 36,000  Level FlightAware ADS-B
Fri 08:53:38 PM 42.1350 -99.1476 267° West 424 488 36,000  Level FlightAware ADS-B
Fri 08:54:09 PM 42.1321 -99.2294 267° West 423 487 36,000  Level FlightAware ADS-B
Fri 08:55:15 PM 42.1256 -99.3997 267° West 421 484 36,000  Level FlightAware ADS-B
Fri 08:55:45 PM 42.1225 -99.4790 267° West 419 482 36,000  Level FlightAware ADS-B
Fri 08:56:15 PM 42.1194 -99.5573 267° West 418 481 36,000  Level FlightAware ADS-B
Fri 08:56:46 PM 42.1163 -99.6353 267° West 416 479 36,000  Level FlightAware ADS-B
Fri 08:57:16 PM 42.1131 -99.7137 267° West 415 478 36,000  Level FlightAware ADS-B
Fri 08:57:47 PM 42.1097 -99.7932 267° West 414 476 36,000  Level FlightAware ADS-B
Fri 08:58:18 PM 42.1063 -99.8715 267° West 413 475 36,000  Level FlightAware ADS-B
Fri 08:58:59 PM 42.1018 -99.9769 267° West 412 474 36,000  Level FlightAware ADS-B
Fri 08:59:52 PM 42.0969 -100.0839 267° West 415 478 36,000  Level Minneapolis Center
Fri 09:00:54 PM 42.0900 -100.2372 267° West 413 475 36,000  Level Minneapolis Center
Fri 09:01:55 PM 42.0808 -100.4175 266° West 407 468 36,000  Level Minneapolis Center
Fri 09:02:57 PM 42.0747 -100.5692 267° West 406 467 36,000  Level Minneapolis Center
Fri 09:03:59 PM 42.0661 -100.7194 266° West 404 465 36,000  Level Minneapolis Center
Fri 09:09:25 PM 42.0214 -101.5590 266° West 415 478 36,000  Level FlightAware ADS-B
Fri 09:10:06 PM 42.0224 -101.6650 271° West 415 478 36,000  Level FlightAware ADS-B
Fri 09:10:27 PM 42.0304 -101.7180 282° West 411 473 36,000  Level FlightAware ADS-B
Fri 09:10:57 PM 42.0424 -101.7930 282° West 410 472 36,000  Level FlightAware ADS-B
Fri 09:11:28 PM 42.0551 -101.8700 283° West 410 472 36,000  Level FlightAware ADS-B
Fri 09:11:59 PM 42.0676 -101.9460 283° West 409 471 36,000  Level FlightAware ADS-B
Fri 09:12:29 PM 42.0799 -102.0200 283° West 408 470 36,000  Level FlightAware ADS-B
Fri 09:12:59 PM 42.0923 -102.0950 283° West 408 470 36,000  Level FlightAware ADS-B
Fri 09:13:31 PM 42.1055 -102.1750 283° West 408 470 36,000  Level FlightAware ADS-B
Fri 09:14:02 PM 42.1178 -102.2490 283° West 408 470 36,000  Level FlightAware ADS-B
Fri 09:14:32 PM 42.1302 -102.3240 283° West 409 471 36,000  Level FlightAware ADS-B
Fri 09:15:02 PM 42.1429 -102.3990 283° West 409 471 36,000  Level FlightAware ADS-B
Fri 09:15:32 PM 42.1557 -102.4730 283° West 410 472 36,000  Level FlightAware ADS-B
Fri 09:16:02 PM 42.1688 -102.5480 283° West 410 472 36,000  Level FlightAware ADS-B
Fri 09:16:32 PM 42.1821 -102.6220 284° West 409 471 36,000  Level FlightAware ADS-B
Fri 09:17:03 PM 42.1956 -102.6970 284° West 410 472 36,000  Level FlightAware ADS-B
Fri 09:17:33 PM 42.2096 -102.7720 284° West 408 470 36,000  Level FlightAware ADS-B
Fri 09:18:04 PM 42.2240 -102.8480 284° West 406 467 36,000  Level FlightAware ADS-B
Fri 09:18:34 PM 42.2384 -102.9220 285° West 406 467 36,000  Level FlightAware ADS-B
Fri 09:19:06 PM 42.2537 -102.9990 285° West 405 466 36,000  Level FlightAware ADS-B
Fri 09:19:31 PM 42.2639 -103.0610 283° West 404 465 36,000  Level FlightAware ADS-B
Fri 09:19:40 PM 42.2651 -103.0840 274° West 403 464 36,000  Level FlightAware ADS-B
Fri 09:19:51 PM 42.2648 -103.1110 269° West 403 464 36,000  Level FlightAware ADS-B
Fri 09:20:14 PM 42.2601 -103.1680 264° West 404 465 36,000  Level FlightAware ADS-B
Fri 09:20:50 PM 42.2517 -103.2590 263° West 403 464 36,000  Level FlightAware ADS-B
Fri 09:21:22 PM 42.2446 -103.3390 263° West 402 463 36,000  Level FlightAware ADS-B
Fri 09:21:53 PM 42.2378 -103.4150 263° West 402 463 36,000  Level FlightAware ADS-B
Fri 09:22:24 PM 42.2309 -103.4910 263° West 404 465 36,000  Level FlightAware ADS-B
Fri 09:22:54 PM 42.2240 -103.5670 263° West 405 466 36,000  Level FlightAware ADS-B
Fri 09:23:24 PM 42.2171 -103.6430 263° West 407 468 36,000  Level FlightAware ADS-B
Fri 09:23:55 PM 42.2099 -103.7200 263° West 408 470 36,000  Level FlightAware ADS-B
Fri 09:24:25 PM 42.2028 -103.7960 263° West 410 472 36,000  Level FlightAware ADS-B
Fri 09:24:59 PM 42.1947 -103.8810 263° West 412 474 36,000  Level FlightAware ADS-B
Fri 09:25:29 PM 42.1873 -103.9590 263° West 412 474 36,000 393 Level FlightAware ADS-B
Fri 09:26:00 PM 42.1799 -104.0360 263° West 409 471 36,400 985 Climbing FlightAware ADS-B
Fri 09:26:36 PM 42.1713 -104.1260 263° West 406 467 37,100 971 Climbing FlightAware ADS-B
Fri 09:27:08 PM 42.1635 -104.2070 263° West 403 464 37,500 774 Climbing FlightAware ADS-B
Fri 09:27:38 PM 42.1561 -104.2820 262° West 403 464 37,900 500 Climbing FlightAware ADS-B
Fri 09:28:08 PM 42.1488 -104.3570 263° West 406 467 38,000 98 Climbing FlightAware ADS-B
Fri 09:28:39 PM 42.1412 -104.4330 262° West 407 468 38,000  Level FlightAware ADS-B
Fri 09:29:09 PM 42.1336 -104.5090 262° West 406 467 38,000  Level FlightAware ADS-B
Fri 09:29:38 PM 42.1262 -104.5820 262° West 406 467 38,000  Level FlightAware ADS-B
Fri 09:30:09 PM 42.1186 -104.6570 262° West 404 465 38,000  Level FlightAware ADS-B
Fri 09:30:40 PM 42.1108 -104.7340 262° West 403 464 38,000  Level FlightAware ADS-B
Fri 09:31:11 PM 42.1030 -104.8110 262° West 403 464 38,000  Level FlightAware ADS-B
Fri 09:31:41 PM 42.0952 -104.8870 262° West 403 464 38,000  Level FlightAware ADS-B
Fri 09:32:13 PM 42.0870 -104.9650 262° West 403 464 38,000  Level FlightAware ADS-B
Fri 09:32:43 PM 42.0791 -105.0400 262° West 403 464 38,000  Level FlightAware ADS-B
Fri 09:33:15 PM 42.0708 -105.1200 262° West 401 461 38,000  Level FlightAware ADS-B
Fri 09:34:09 PM 42.0570 -105.2520 262° West 399 459 38,000  Level FlightAware ADS-B
Fri 09:34:49 PM 42.0460 -105.3510 262° West 405 466 38,000  Level FlightAware ADS-B
Fri 09:35:39 PM 42.0340 -105.4600 262° West 405 466 38,000  Level FlightAware ADS-B
Fri 09:36:15 PM 42.0250 -105.5360 261° West 405 466 38,000  Level FlightAware ADS-B
Fri 09:37:03 PM 42.0130 -105.6380 261° West 405 466 38,000  Level FlightAware ADS-B
Fri 09:37:40 PM 42.0040 -105.7160 261° West 405 466 38,000  Level FlightAware ADS-B
Fri 09:38:26 PM 41.9870 -105.8840 262° West 400 460 38,000  Level FlightAware ADS-B
Fri 09:39:02 PM 41.9770 -105.9740 262° West 400 460 38,000  Level FlightAware ADS-B
Fri 09:39:48 PM 41.9650 -106.0860 262° West 400 460 38,000  Level FlightAware ADS-B
Fri 09:40:32 PM 41.9520 -106.1950 261° West 401 461 38,000  Level FlightAware ADS-B
Fri 09:41:12 PM 41.9410 -106.2890 261° West 401 461 38,000  Level FlightAware ADS-B
Fri 09:42:05 PM 41.9270 -106.4100 261° West 401 461 38,000  Level FlightAware ADS-B
Fri 09:42:41 PM 41.9180 -106.4850 261° West 401 461 38,000  Level FlightAware ADS-B
Fri 09:43:31 PM 41.9060 -106.5900 261° West 401 461 38,000  Level FlightAware ADS-B
Fri 09:44:07 PM 41.8970 -106.6650 261° West 401 461 38,000  Level FlightAware ADS-B
Fri 09:44:55 PM 41.8850 -106.7650 261° West 401 461 38,000  Level FlightAware ADS-B
Fri 09:45:31 PM 41.8760 -106.8410 261° West 401 461 38,000  Level FlightAware ADS-B
Fri 09:46:20 PM 41.8640 -106.9430 261° West 401 461 38,000  Level FlightAware ADS-B
Fri 09:46:56 PM 41.8550 -107.0180 261° West 401 461 38,000  Level FlightAware ADS-B
Fri 09:47:42 PM 41.8260 -107.2440 260° West 400 460 38,000  Level FlightAware ADS-B
Fri 09:48:24 PM 41.8130 -107.3450 260° West 398 458 38,000  Level FlightAware ADS-B
Fri 09:49:05 PM 41.8000 -107.4480 260° West 399 459 38,000  Level FlightAware ADS-B
Fri 09:49:39 PM 41.7900 -107.5300 261° West 400 460 38,000  Level FlightAware ADS-B
Fri 09:50:22 PM 41.7770 -107.6330 260° West 402 463 38,000  Level FlightAware ADS-B
Fri 09:51:02 PM 41.7640 -107.7320 260° West 399 459 38,000  Level FlightAware ADS-B
Fri 09:51:38 PM 41.7530 -107.8170 260° West 397 457 38,000  Level FlightAware ADS-B
Fri 09:52:19 PM 41.7400 -107.9150 260° West 399 459 38,000  Level FlightAware ADS-B
Fri 09:53:04 PM 41.7250 -108.0270 260° West 401 461 38,000  Level FlightAware ADS-B
Fri 09:53:43 PM 41.7130 -108.1210 260° West 399 459 38,000  Level FlightAware ADS-B
Fri 09:54:27 PM 41.6980 -108.2310 260° West 400 460 38,000  Level FlightAware ADS-B
Fri 09:55:08 PM 41.6850 -108.3280 260° West 401 461 38,000  Level FlightAware ADS-B
Fri 09:55:52 PM 41.6710 -108.4350 260° West 402 463 38,000  Level FlightAware ADS-B
Fri 09:56:27 PM 41.6590 -108.5230 260° West 402 463 38,000  Level FlightAware ADS-B
Fri 09:57:08 PM 41.6450 -108.6230 259° West 404 465 38,000  Level FlightAware ADS-B
Fri 09:57:51 PM 41.6300 -108.7280 259° West 405 466 38,000  Level FlightAware ADS-B
Fri 09:58:31 PM 41.6170 -108.8280 260° West 407 468 38,000  Level FlightAware ADS-B
Fri 09:59:16 PM 41.6010 -108.9370 259° West 406 467 38,000  Level FlightAware ADS-B
Fri 09:59:55 PM 41.5900 -109.0360 262° West 407 468 38,000  Level FlightAware ADS-B
Fri 10:00:42 PM 41.5880 -109.1100 268° West 408 470 38,000  Level FlightAware ADS-B
Fri 10:01:23 PM 41.5840 -109.2570 268° West 407 468 38,000  Level FlightAware ADS-B
Fri 10:02:09 PM 41.5800 -109.3720 267° West 408 470 38,000  Level FlightAware ADS-B
Fri 10:02:49 PM 41.5770 -109.4740 268° West 408 470 38,000  Level FlightAware ADS-B
Fri 10:03:30 PM 41.5740 -109.5750 268° West 408 470 38,000  Level FlightAware ADS-B
Fri 10:04:13 PM 41.5710 -109.6840 268° West 404 465 38,000  Level FlightAware ADS-B
Fri 10:04:54 PM 41.5680 -109.7830 268° West 400 460 38,000  Level FlightAware ADS-B
Fri 10:05:39 PM 41.5640 -109.8960 267° West 400 460 38,000  Level FlightAware ADS-B
Fri 10:06:20 PM 41.5610 -109.9920 268° West 400 460 38,000  Level FlightAware ADS-B
Fri 10:06:55 PM 41.5570 -110.0830 267° West 401 461 38,000  Level FlightAware ADS-B
Fri 10:07:35 PM 41.5540 -110.1810 268° West 401 461 38,000  Level FlightAware ADS-B
Fri 10:08:28 PM 41.5490 -110.3090 267° West 392 451 38,000  Level FlightAware ADS-B
Fri 10:09:08 PM 41.5450 -110.4050 267° West 392 451 38,000  Level FlightAware ADS-B
Fri 10:09:52 PM 41.5420 -110.5090 268° West 390 449 38,000  Level FlightAware ADS-B
Fri 10:10:32 PM 41.5380 -110.6090 267° West 389 448 38,000  Level FlightAware ADS-B
Fri 10:11:16 PM 41.5340 -110.7100 267° West 387 445 38,000  Level FlightAware ADS-B
Fri 10:11:38 PM 41.5312 -110.7660 266° West 388 447 38,000  Level FlightAware ADS-B
Fri 10:12:08 PM 41.5282 -110.8380 267° West 387 445 38,000  Level FlightAware ADS-B
Fri 10:12:40 PM 41.5250 -110.9120 267° West 387 445 38,000  Level FlightAware ADS-B
Fri 10:13:10 PM 41.5219 -110.9860 267° West 387 445 38,000  Level FlightAware ADS-B
Fri 10:13:41 PM 41.5188 -111.0570 267° West 387 445 38,000  Level FlightAware ADS-B
Fri 10:14:11 PM 41.5158 -111.1290 267° West 387 445 38,000  Level FlightAware ADS-B
Fri 10:14:41 PM 41.5125 -111.2020 267° West 387 445 38,000  Level FlightAware ADS-B
Fri 10:15:12 PM 41.5092 -111.2740 267° West 388 447 38,000  Level FlightAware ADS-B
Fri 10:15:42 PM 41.5058 -111.3470 266° West 392 451 38,000  Level FlightAware ADS-B
Fri 10:16:12 PM 41.5024 -111.4190 266° West 396 456 38,000  Level FlightAware ADS-B
Fri 10:16:43 PM 41.4989 -111.4930 266° West 400 460 38,000  Level FlightAware ADS-B
Fri 10:17:13 PM 41.4953 -111.5680 266° West 402 463 38,000  Level FlightAware ADS-B
Fri 10:17:46 PM 41.4914 -111.6490 266° West 405 466 38,000  Level FlightAware ADS-B
Fri 10:18:17 PM 41.4875 -111.7280 266° West 405 466 38,000  Level FlightAware ADS-B
Fri 10:18:48 PM 41.4838 -111.8030 266° West 406 467 38,000  Level FlightAware ADS-B
Fri 10:19:18 PM 41.4798 -111.8790 266° West 407 468 38,000  Level FlightAware ADS-B
Fri 10:19:51 PM 41.4757 -111.9610 266° West 409 471 38,000  Level FlightAware ADS-B
Fri 10:20:21 PM 41.4716 -112.0370 266° West 410 472 38,000  Level FlightAware ADS-B
Fri 10:20:52 PM 41.4677 -112.1130 266° West 409 471 38,000  Level FlightAware ADS-B
Fri 10:21:22 PM 41.4637 -112.1890 266° West 407 468 38,000  Level FlightAware ADS-B
Fri 10:21:52 PM 41.4596 -112.2640 266° West 408 470 38,000  Level FlightAware ADS-B
Fri 10:22:22 PM 41.4555 -112.3400 266° West 409 471 38,000  Level FlightAware ADS-B
Fri 10:23:00 PM 41.4501 -112.4360 266° West 410 472 38,000  Level FlightAware ADS-B
Fri 10:23:31 PM 41.4458 -112.5120 266° West 407 468 38,000  Level FlightAware ADS-B
Fri 10:24:01 PM 41.4415 -112.5880 266° West 407 468 38,000  Level FlightAware ADS-B
Fri 10:24:33 PM 41.4371 -112.6660 266° West 405 466 38,000  Level FlightAware ADS-B
Fri 10:25:03 PM 41.4326 -112.7420 266° West 407 468 38,000  Level FlightAware ADS-B
Fri 10:25:34 PM 41.4281 -112.8180 266° West 411 473 38,000  Level FlightAware ADS-B
Fri 10:26:05 PM 41.4234 -112.8970 265° West 410 472 38,000  Level FlightAware ADS-B
Fri 10:26:35 PM 41.4188 -112.9730 265° West 412 474 38,000  Level FlightAware ADS-B
Fri 10:27:06 PM 41.4140 -113.0510 265° West 413 475 38,000  Level FlightAware ADS-B
Fri 10:27:36 PM 41.4093 -113.1280 265° West 414 476 38,000  Level FlightAware ADS-B
Fri 10:28:11 PM 41.4039 -113.2160 265° West 414 476 38,000  Level FlightAware ADS-B
Fri 10:28:41 PM 41.3990 -113.2930 265° West 416 479 38,000  Level FlightAware ADS-B
Fri 10:29:11 PM 41.3942 -113.3700 265° West 419 482 38,000  Level FlightAware ADS-B
Fri 10:29:45 PM 41.3885 -113.4560 265° West 420 483 38,000  Level FlightAware ADS-B
Fri 10:30:15 PM 41.3835 -113.5330 265° West 422 486 38,000  Level FlightAware ADS-B
Fri 10:30:45 PM 41.3786 -113.6110 265° West 422 486 38,000  Level FlightAware ADS-B
Fri 10:31:16 PM 41.3732 -113.6890 265° West 420 483 38,000  Level FlightAware ADS-B
Fri 10:31:46 PM 41.3678 -113.7670 265° West 416 479 38,000  Level FlightAware ADS-B
Fri 10:32:15 PM 41.3611 -113.8400 263° West 412 474 38,000  Level FlightAware ADS-B
Fri 10:32:26 PM 41.3562 -113.8670 256° West 409 471 38,000  Level FlightAware ADS-B
Fri 10:32:57 PM 41.3386 -113.9410 252° West 410 472 38,000  Level FlightAware ADS-B
Fri 10:33:27 PM 41.3211 -114.0130 252° West 407 468 38,000  Level FlightAware ADS-B
Fri 10:33:57 PM 41.3034 -114.0850 252° West 407 468 38,000  Level FlightAware ADS-B
Fri 10:34:34 PM 41.2824 -114.1710 252° West 409 471 38,000  Level FlightAware ADS-B
Fri 10:35:06 PM 41.2636 -114.2490 252° West 410 472 38,000  Level FlightAware ADS-B
Fri 10:35:37 PM 41.2454 -114.3230 252° West 412 474 38,000  Level FlightAware ADS-B
Fri 10:36:08 PM 41.2271 -114.3970 252° West 415 478 38,000  Level FlightAware ADS-B
Fri 10:36:39 PM 41.2085 -114.4720 252° West 417 480 38,000  Level FlightAware ADS-B
Fri 10:37:09 PM 41.1900 -114.5460 252° West 419 482 38,000  Level FlightAware ADS-B
Fri 10:37:39 PM 41.1718 -114.6190 252° West 417 480 38,000  Level FlightAware ADS-B
Fri 10:38:09 PM 41.1539 -114.6910 252° West 414 476 38,000  Level FlightAware ADS-B
Fri 10:38:39 PM 41.1357 -114.7640 252° West 416 479 38,000  Level FlightAware ADS-B
Fri 10:41:08 PM 41.0458 -115.1200 252° West 409 471 38,000  Level FlightAware ADS-B
Fri 10:41:38 PM 41.0275 -115.1910 251° West 407 468 38,000  Level FlightAware ADS-B
Fri 10:42:09 PM 41.0088 -115.2640 251° West 407 468 38,000  Level FlightAware ADS-B
Fri 10:42:39 PM 40.9903 -115.3360 251° West 408 470 38,000  Level FlightAware ADS-B
Fri 10:43:10 PM 40.9717 -115.4080 251° West 409 471 38,000  Level FlightAware ADS-B
Fri 10:47:17 PM 40.8222 -115.9820 251° West 403 464 38,000  Level FlightAware ADS-B
Fri 10:48:08 PM 40.7908 -116.1000 251° West 403 464 38,000  Level FlightAware ADS-B
Fri 10:48:44 PM 40.7731 -116.1658 251° West 404 465 38,000  Level Oakland Center
Fri 10:49:45 PM 40.7381 -116.2997 251° West 405 466 38,000  Level Oakland Center
Fri 10:50:46 PM 40.6967 -116.4531 250° West 401 461 38,000  Level Oakland Center
Fri 10:51:47 PM 40.6611 -116.5850 250° West 400 460 38,000  Level Oakland Center
Fri 10:52:48 PM 40.6194 -116.7378 250° West 399 459 38,000  Level Oakland Center
Fri 10:53:49 PM 40.5856 -116.8689 251° West 401 461 38,000  Level Oakland Center
Fri 10:59:53 PM 40.3590 -117.7190 251° West 399 459 38,000 -59 Level FlightAware ADS-B
Fri 11:00:37 PM 40.3320 -117.8200 251° West 399 459 37,600 -750 Descending FlightAware ADS-B
Fri 11:01:21 PM 40.3040 -117.9230 250° West 401 461 36,900 -923 Descending FlightAware ADS-B
Fri 11:01:55 PM 40.2840 -117.9980 251° West 404 465 36,400 -645 Descending FlightAware ADS-B
Fri 11:02:54 PM 40.2490 -118.1260 250° West 409 471 35,900 -1,021 Descending FlightAware ADS-B
Fri 11:03:29 PM 40.2240 -118.2180 250° West 410 472 34,800 -2,320 Descending FlightAware ADS-B
Fri 11:04:09 PM 40.1990 -118.3100 250° West 413 475 33,000 -2,925 Descending FlightAware ADS-B
Fri 11:04:49 PM 40.1730 -118.4070 251° West 421 484 30,900 -2,850 Descending FlightAware ADS-B
Fri 11:05:29 PM 40.1460 -118.5020 250° West 415 478 29,200 -2,442 Descending FlightAware ADS-B
Fri 11:06:15 PM 40.1190 -118.6100 252° West 410 472 27,400 -2,333 Descending FlightAware ADS-B
Fri 11:06:59 PM 40.0990 -118.7150 256° West 404 465 25,700 -2,313 Descending FlightAware ADS-B
Fri 11:07:51 PM 40.0750 -118.8370 256° West 398 458 23,700 -2,318 Descending FlightAware ADS-B
Fri 11:08:27 PM 40.0590 -118.9210 256° West 391 450 22,300 -2,308 Descending FlightAware ADS-B
Fri 11:09:09 PM 40.0410 -119.0160 256° West 383 441 20,700 -2,231 Descending FlightAware ADS-B
Fri 11:09:45 PM 40.0250 -119.0950 255° West 376 433 19,400 -1,026 Descending FlightAware ADS-B
Fri 11:10:25 PM 40.0100 -119.1690 255° West 376 433 19,400  Level FlightAware ADS-B
Fri 11:11:01 PM 39.9960 -119.2360 255° West 376 433 19,400  Level FlightAware ADS-B
Fri 11:11:46 PM 39.9790 -119.3200 255° West 376 433 19,400  Level FlightAware ADS-B
Fri 11:12:33 PM 39.9610 -119.4080 255° West 376 433 19,400 -5,016 Level FlightAware ADS-B
Fri 11:12:47 PM 39.9230 -119.4470 218° Southwest 321 369 14,300 -6,643 Descending FlightAware ADS-B
Fri 11:13:29 PM 39.8830 -119.5050 228° Southwest 315 362 13,200 -1,538 Descending FlightAware ADS-B
Fri 11:14:05 PM 39.8500 -119.5530 228° Southwest 293 337 12,300 -1,571 Descending FlightAware ADS-B
Fri 11:14:53 PM 39.8070 -119.6130 227° Southwest 271 312 11,000 -1,429 Descending FlightAware ADS-B
Fri 11:15:29 PM 39.7770 -119.6550 227° Southwest 259 298 10,300 -1,031 Descending FlightAware ADS-B
Fri 11:15:57 PM 39.7550 -119.6860 227° Southwest 239 275 9,900 -923 Descending FlightAware ADS-B
Fri 11:16:21 PM 39.7380 -119.7100 227° Southwest 227 261 9,500 -1,200 Descending FlightAware ADS-B
Fri 11:16:37 PM 39.7270 -119.7260 228° Southwest 225 259 9,100 -1,227 Descending FlightAware ADS-B
Fri 11:17:05 PM 39.7070 -119.7540 227° Southwest 212 244 8,600 -1,143 Descending FlightAware ADS-B
Fri 11:17:19 PM 39.6970 -119.7650 220° Southwest 208 239 8,300 -1,154 Descending FlightAware ADS-B
Fri 11:17:31 PM 39.6860 -119.7690 196° South 207 238 8,100 -1,219 Descending FlightAware ADS-B
Fri 11:18:23 PM 39.6380 -119.7680 179° South 191 220 7,000 -1,275 Descending FlightAware ADS-B
Fri 11:18:51 PM 39.6140 -119.7690 182° South 177 204 6,400 -1,071 Descending FlightAware ADS-B
Fri 11:19:19 PM 39.5920 -119.7690 180° South 166 191 6,000 -857 Descending FlightAware ADS-B
Fri 11:19:47 PM 39.5700 -119.7690 180° South 166 191 5,600 -818 Descending FlightAware ADS-B
Fri 11:20:25 PM 39.5410 -119.7690 180° South 168 193 5,100 -808 Descending FlightAware ADS-B
Fri 11:20:39 PM 39.5310 -119.7690 180° South 169 194 4,900 -857 Descending FlightAware ADS-B

Login

Don't have an account? Register now (free) for customized features, flight alerts, and more!